Time;durP1;ratioP1;P1;durP2;ratioP2;P2;SDS_P1;SDS_P2;PMS_P1;PMS_P2;Temp;Humidity;BMP_temperature;BMP_pressure;BME280_temperature;BME280_humidity;BME280_pressure;Samples;Min_cycle;Max_cycle;Signal;HPM_P1;HPM_P2
2022/10/29 00:02:24;;;;;;;1.27;0.40;;;;;;;;;;4942420;28;20038;-65
2022/10/29 00:04:51;;;;;;;2.17;0.50;;;;;;;;;;4943029;28;20069;-66
2022/10/29 00:07:17;;;;;;;5.45;0.60;;;;;;;;;;4940326;28;20043;-65
2022/10/29 00:09:44;;;;;;;5.35;0.85;;;;;;;;;;4944742;28;20107;-65
2022/10/29 00:12:10;;;;;;;4.50;0.60;;;;;;;;;;4940376;28;20047;-65
2022/10/29 00:14:37;;;;;;;4.25;0.57;;;;;;;;;;4940037;28;20051;-65
2022/10/29 00:17:04;;;;;;;7.57;0.70;;;;;;;;;;4939722;28;20046;-64
2022/10/29 00:19:30;;;;;;;4.20;0.60;;;;;;;;;;4939337;28;20095;-64
2022/10/29 00:21:57;;;;;;;2.47;0.60;;;;;;;;;;4940567;28;20562;-64
2022/10/29 00:24:23;;;;;;;6.85;0.95;;;;;;;;;;4939878;28;20381;-65
2022/10/29 00:26:50;;;;;;;4.45;0.77;;;;;;;;;;4939891;28;20159;-68
2022/10/29 00:29:16;;;;;;;4.88;0.80;;;;;;;;;;4938850;28;20806;-65
2022/10/29 00:31:43;;;;;;;3.67;0.70;;;;;;;;;;4939590;28;20510;-64
2022/10/29 00:34:10;;;;;;;9.95;1.20;;;;;;;;;;4939769;28;21072;-64
2022/10/29 00:36:36;;;;;;;2.08;0.60;;;;;;;;;;4938390;28;20047;-64
2022/10/29 00:39:03;;;;;;;3.92;0.70;;;;;;;;;;4939514;28;20101;-65
2022/10/29 00:41:30;;;;;;;2.72;0.77;;;;;;;;;;4937406;28;20041;-65
2022/10/29 00:44:15;;;;;;;4.45;0.80;;;;;;;;;;4938741;28;20081;-65
2022/10/29 00:46:42;;;;;;;3.10;0.65;;;;;;;;;;4938688;28;20559;-65
2022/10/29 00:49:10;;;;;;;6.80;0.70;;;;;;;;;;4953570;28;20146;-65
2022/10/29 00:51:37;;;;;;;3.13;0.70;;;;;;;;;;4939108;28;20466;-67
2022/10/29 00:54:10;;;;;;;3.33;0.70;;;;;;;;;;4939619;28;20125;-69
2022/10/29 00:56:42;;;;;;;3.08;0.82;;;;;;;;;;4938898;28;20043;-65
2022/10/29 00:59:09;;;;;;;1.33;0.50;;;;;;;;;;4940053;28;20047;-66
2022/10/29 01:01:37;;;;;;;1.88;0.68;;;;;;;;;;4937556;28;20492;-64
2022/10/29 01:04:04;;;;;;;2.97;0.80;;;;;;;;;;4938587;28;20106;-65
2022/10/29 01:06:31;;;;;;;2.55;0.47;;;;;;;;;;4937752;28;20043;-67
2022/10/29 01:08:57;;;;;;;2.92;0.57;;;;;;;;;;4938908;28;20063;-65
2022/10/29 01:11:29;;;;;;;5.13;0.70;;;;;;;;;;4936753;28;20047;-65
2022/10/29 01:13:56;;;;;;;2.60;0.50;;;;;;;;;;4938042;28;20530;-67
2022/10/29 01:16:25;;;;;;;2.05;0.50;;;;;;;;;;4944161;28;20070;-66
2022/10/29 01:19:12;;;;;;;1.80;0.52;;;;;;;;;;4936201;28;20606;-65
2022/10/29 01:21:38;;;;;;;2.90;0.60;;;;;;;;;;4935922;28;20054;-64
2022/10/29 01:24:23;;;;;;;5.38;0.80;;;;;;;;;;4951225;28;20046;-64
2022/10/29 01:26:50;;;;;;;2.03;0.52;;;;;;;;;;4916459;29;20143;-64
2022/10/29 01:29:26;;;;;;;4.70;0.60;;;;;;;;;;4919017;28;20070;-64
2022/10/29 01:31:55;;;;;;;1.50;0.43;;;;;;;;;;4938807;28;20066;-65
2022/10/29 01:34:28;;;;;;;4.30;0.80;;;;;;;;;;4929120;28;20055;-65
2022/10/29 01:36:55;;;;;;;2.90;0.70;;;;;;;;;;4918871;28;20047;-65
2022/10/29 01:39:50;;;;;;;1.75;0.68;;;;;;;;;;4918439;28;20822;-69
2022/10/29 01:42:20;;;;;;;3.10;0.77;;;;;;;;;;4914800;28;20039;-64
2022/10/29 01:44:54;;;;;;;1.33;0.43;;;;;;;;;;4915238;28;21339;-65
2022/10/29 01:47:21;;;;;;;5.43;0.70;;;;;;;;;;4916844;28;20047;-68
2022/10/29 01:49:56;;;;;;;1.45;0.50;;;;;;;;;;4925690;28;20039;-65
2022/10/29 01:52:25;;;;;;;2.08;0.50;;;;;;;;;;4916405;28;20048;-65
2022/10/29 01:54:51;;;;;;;1.42;0.50;;;;;;;;;;4918985;28;20100;-64
2022/10/29 01:57:35;;;;;;;2.40;0.63;;;;;;;;;;4919687;28;20039;-64
2022/10/29 02:00:04;;;;;;;5.75;0.80;;;;;;;;;;4923737;28;22210;-64
2022/10/29 02:02:39;;;;;;;9.93;0.95;;;;;;;;;;4917941;28;20083;-64
2022/10/29 02:05:15;;;;;;;3.50;0.80;;;;;;;;;;4920032;28;20512;-65
2022/10/29 02:07:42;;;;;;;8.60;1.00;;;;;;;;;;4909080;28;20515;-64
2022/10/29 02:10:21;;;;;;;6.10;1.00;;;;;;;;;;4918639;28;20052;-64
2022/10/29 02:12:51;;;;;;;4.55;1.00;;;;;;;;;;4916959;28;20040;-64
2022/10/29 02:15:35;;;;;;;6.38;0.93;;;;;;;;;;4919032;28;20793;-63
2022/10/29 02:18:02;;;;;;;5.60;1.27;;;;;;;;;;4917374;28;20527;-64
2022/10/29 02:20:29;;;;;;;7.93;1.40;;;;;;;;;;4918627;28;20039;-64
2022/10/29 02:22:56;;;;;;;3.55;1.00;;;;;;;;;;4919301;28;20118;-64
2022/10/29 02:25:23;;;;;;;5.13;0.93;;;;;;;;;;4919785;28;20053;-66
2022/10/29 02:27:49;;;;;;;8.75;1.15;;;;;;;;;;4919041;28;20104;-64
2022/10/29 02:30:16;;;;;;;3.15;1.00;;;;;;;;;;4918760;28;20044;-64
2022/10/29 02:32:43;;;;;;;10.18;1.20;;;;;;;;;;4918973;28;20054;-64
2022/10/29 02:35:10;;;;;;;7.50;1.45;;;;;;;;;;4058038;28;10000506;-64
2022/10/29 02:37:37;;;;;;;7.22;1.05;;;;;;;;;;4911295;28;20064;-65
2022/10/29 02:40:04;;;;;;;11.93;1.30;;;;;;;;;;4915210;28;20047;-65
2022/10/29 02:42:30;;;;;;;9.48;1.40;;;;;;;;;;4918483;28;22340;-64
2022/10/29 02:44:57;;;;;;;5.85;1.42;;;;;;;;;;4919027;28;20491;-65
2022/10/29 02:47:23;;;;;;;7.13;1.50;;;;;;;;;;4917539;28;20046;-65
2022/10/29 02:49:50;;;;;;;10.35;1.60;;;;;;;;;;4918746;28;20048;-66
2022/10/29 02:52:17;;;;;;;10.35;1.88;;;;;;;;;;4918134;28;20122;-64
2022/10/29 02:54:43;;;;;;;12.07;3.33;;;;;;;;;;4918570;28;20089;-65
2022/10/29 02:57:10;;;;;;;17.73;3.10;;;;;;;;;;4918593;28;20134;-66
2022/10/29 02:59:36;;;;;;;18.75;2.35;;;;;;;;;;4919074;28;20647;-65
2022/10/29 03:02:03;;;;;;;20.13;1.90;;;;;;;;;;4919447;28;20039;-66
2022/10/29 03:04:29;;;;;;;6.88;1.60;;;;;;;;;;4917731;28;20174;-65
2022/10/29 03:06:56;;;;;;;7.15;1.67;;;;;;;;;;4917707;28;20040;-65
2022/10/29 03:09:23;;;;;;;15.00;2.20;;;;;;;;;;4917161;28;20079;-66
2022/10/29 03:11:49;;;;;;;6.47;1.70;;;;;;;;;;4918985;28;20039;-66
2022/10/29 03:14:16;;;;;;;5.97;1.88;;;;;;;;;;4918005;28;20063;-65
2022/10/29 03:16:42;;;;;;;8.30;1.90;;;;;;;;;;4917336;28;20043;-65
2022/10/29 03:19:09;;;;;;;8.32;1.55;;;;;;;;;;4918019;28;20400;-65
2022/10/29 03:21:36;;;;;;;13.43;1.98;;;;;;;;;;4901062;28;20143;-65
2022/10/29 03:24:03;;;;;;;6.80;1.83;;;;;;;;;;4909175;28;20044;-65
2022/10/29 03:26:30;;;;;;;5.13;1.67;;;;;;;;;;4916313;28;21878;-65
2022/10/29 03:28:56;;;;;;;6.13;2.10;;;;;;;;;;4918570;28;21716;-65
2022/10/29 03:31:23;;;;;;;7.13;1.95;;;;;;;;;;4917305;28;20067;-65
2022/10/29 03:33:49;;;;;;;8.68;2.80;;;;;;;;;;4917395;28;20047;-64
2022/10/29 03:36:16;;;;;;;14.50;3.70;;;;;;;;;;4917365;28;20476;-65
2022/10/29 03:38:43;;;;;;;9.45;3.55;;;;;;;;;;4917778;28;20084;-65
2022/10/29 03:41:09;;;;;;;12.02;3.30;;;;;;;;;;4918359;28;20523;-67
2022/10/29 03:43:39;;;;;;;10.40;3.25;;;;;;;;;;4911326;28;20126;-63
2022/10/29 03:46:06;;;;;;;9.88;3.13;;;;;;;;;;4921725;28;20124;-64
2022/10/29 03:48:33;;;;;;;7.28;3.35;;;;;;;;;;4921227;28;20051;-65
2022/10/29 03:51:00;;;;;;;10.73;2.75;;;;;;;;;;4922309;28;20047;-63
2022/10/29 03:53:27;;;;;;;7.25;3.33;;;;;;;;;;4920984;28;20059;-64
2022/10/29 03:55:54;;;;;;;11.15;3.92;;;;;;;;;;4921054;28;20047;-65
2022/10/29 03:58:21;;;;;;;9.25;4.47;;;;;;;;;;4912286;28;20036;-68
2022/10/29 04:00:54;;;;;;;8.63;4.15;;;;;;;;;;4921481;28;20053;-65
2022/10/29 04:03:21;;;;;;;7.80;3.92;;;;;;;;;;4919287;28;20052;-67
2022/10/29 04:05:47;;;;;;;10.00;3.85;;;;;;;;;;4921742;28;20501;-65
2022/10/29 04:08:14;;;;;;;11.50;4.57;;;;;;;;;;4912350;28;20036;-66
2022/10/29 04:10:45;;;;;;;8.48;3.63;;;;;;;;;;4911866;28;20050;-66
2022/10/29 04:13:12;;;;;;;14.90;4.10;;;;;;;;;;4921240;28;20081;-64
2022/10/29 04:15:39;;;;;;;9.75;3.60;;;;;;;;;;4920912;28;20544;-64
2022/10/29 04:18:05;;;;;;;12.63;3.83;;;;;;;;;;4922025;28;20044;-63
2022/10/29 04:20:32;;;;;;;14.07;4.05;;;;;;;;;;4921848;28;20173;-64
2022/10/29 04:22:58;;;;;;;16.85;3.85;;;;;;;;;;4921965;28;20070;-66
2022/10/29 04:25:25;;;;;;;7.53;3.85;;;;;;;;;;4920372;28;20139;-68
2022/10/29 04:27:54;;;;;;;10.48;3.95;;;;;;;;;;4921938;28;20655;-64
2022/10/29 04:30:21;;;;;;;13.80;4.35;;;;;;;;;;4921435;28;20040;-63
2022/10/29 04:32:47;;;;;;;11.00;4.13;;;;;;;;;;4921073;28;20047;-64
2022/10/29 04:35:14;;;;;;;6.70;2.92;;;;;;;;;;4920833;28;20452;-64
2022/10/29 04:37:40;;;;;;;9.38;3.30;;;;;;;;;;4920005;28;20035;-65
2022/10/29 04:40:07;;;;;;;5.40;2.72;;;;;;;;;;4920907;28;20067;-65
2022/10/29 04:42:37;;;;;;;9.23;2.80;;;;;;;;;;4919398;28;20404;-64
2022/10/29 04:45:04;;;;;;;10.52;2.85;;;;;;;;;;4920653;28;20106;-65
2022/10/29 04:47:31;;;;;;;9.25;2.72;;;;;;;;;;4919958;28;20404;-65
2022/10/29 04:49:58;;;;;;;9.20;3.08;;;;;;;;;;4920700;28;20478;-64
2022/10/29 04:52:24;;;;;;;11.63;3.08;;;;;;;;;;4919092;28;20054;-66
2022/10/29 04:54:51;;;;;;;9.95;3.15;;;;;;;;;;4920888;28;20055;-65
2022/10/29 04:57:17;;;;;;;7.28;3.00;;;;;;;;;;4920480;28;20044;-65
2022/10/29 04:59:44;;;;;;;8.70;3.13;;;;;;;;;;4920143;28;20567;-65
2022/10/29 05:02:11;;;;;;;11.13;3.30;;;;;;;;;;4919466;29;20475;-64
2022/10/29 05:04:37;;;;;;;11.60;3.17;;;;;;;;;;4919810;28;20055;-63
2022/10/29 05:07:04;;;;;;;11.45;3.28;;;;;;;;;;4934919;28;20138;-64
2022/10/29 05:09:30;;;;;;;9.05;2.58;;;;;;;;;;4920254;28;20051;-65
2022/10/29 05:11:57;;;;;;;8.02;2.92;;;;;;;;;;4920807;28;20111;-65
2022/10/29 05:14:23;;;;;;;9.18;2.80;;;;;;;;;;4918916;28;20047;-65
2022/10/29 05:16:50;;;;;;;11.63;2.88;;;;;;;;;;4920421;28;20042;-65
2022/10/29 05:19:17;;;;;;;10.32;3.13;;;;;;;;;;4920488;28;20425;-64
2022/10/29 05:21:43;;;;;;;10.77;2.85;;;;;;;;;;4920211;28;20040;-65
2022/10/29 05:24:10;;;;;;;13.90;3.42;;;;;;;;;;4919902;28;20138;-66
2022/10/29 05:26:36;;;;;;;6.05;2.55;;;;;;;;;;4916389;28;20048;-65
2022/10/29 05:29:03;;;;;;;10.27;2.38;;;;;;;;;;4935757;28;20051;-64
2022/10/29 05:31:30;;;;;;;8.30;2.83;;;;;;;;;;4919751;28;20142;-65
2022/10/29 05:33:56;;;;;;;12.80;3.33;;;;;;;;;;4920528;28;20050;-65
2022/10/29 05:36:23;;;;;;;12.25;3.03;;;;;;;;;;4919168;28;20039;-64
2022/10/29 05:38:49;;;;;;;9.70;2.90;;;;;;;;;;4920424;28;20468;-65
2022/10/29 05:41:16;;;;;;;8.93;3.00;;;;;;;;;;4920385;28;20032;-65
2022/10/29 05:43:43;;;;;;;7.07;3.13;;;;;;;;;;4920709;28;20409;-65
2022/10/29 05:46:09;;;;;;;9.13;3.45;;;;;;;;;;4920763;28;20099;-65
2022/10/29 05:48:36;;;;;;;8.20;2.67;;;;;;;;;;4920507;28;20054;-65
2022/10/29 05:51:03;;;;;;;5.70;2.70;;;;;;;;;;4920744;28;20051;-65
2022/10/29 05:53:29;;;;;;;14.05;3.10;;;;;;;;;;4919787;28;20095;-64
2022/10/29 05:55:58;;;;;;;5.88;2.95;;;;;;;;;;4919565;28;20048;-64
2022/10/29 05:58:24;;;;;;;14.00;3.33;;;;;;;;;;4919214;28;20130;-65
2022/10/29 06:00:51;;;;;;;6.78;2.38;;;;;;;;;;4920451;28;20509;-64
2022/10/29 06:03:19;;;;;;;10.48;2.70;;;;;;;;;;4918488;29;20156;-64
2022/10/29 06:05:49;;;;;;;8.52;2.70;;;;;;;;;;4917414;29;20527;-64
2022/10/29 06:08:16;;;;;;;7.25;2.63;;;;;;;;;;4921071;28;20035;-64
2022/10/29 06:10:43;;;;;;;9.88;2.53;;;;;;;;;;4920544;28;20051;-65
2022/10/29 06:13:13;;;;;;;7.30;2.60;;;;;;;;;;4920283;28;20419;-65
2022/10/29 06:15:40;;;;;;;9.68;2.72;;;;;;;;;;4918800;28;20500;-64
2022/10/29 06:18:06;;;;;;;5.25;2.28;;;;;;;;;;4920889;28;20123;-65
2022/10/29 06:20:33;;;;;;;7.38;2.55;;;;;;;;;;4919262;28;20455;-64
2022/10/29 06:23:00;;;;;;;8.07;2.63;;;;;;;;;;4919413;28;20452;-65
2022/10/29 06:25:27;;;;;;;8.07;2.58;;;;;;;;;;4917898;28;20151;-65
2022/10/29 06:28:02;;;;;;;5.32;2.50;;;;;;;;;;4920042;28;20122;-65
2022/10/29 06:30:29;;;;;;;7.55;2.63;;;;;;;;;;4910454;28;20047;-64
2022/10/29 06:32:56;;;;;;;7.50;2.67;;;;;;;;;;4918023;29;20043;-64
2022/10/29 06:35:22;;;;;;;9.15;2.97;;;;;;;;;;4917766;28;20160;-65
2022/10/29 06:37:49;;;;;;;8.15;3.40;;;;;;;;;;4918361;28;21046;-64
2022/10/29 06:40:16;;;;;;;8.30;3.65;;;;;;;;;;4919112;28;20047;-64
2022/10/29 06:42:42;;;;;;;8.45;3.60;;;;;;;;;;4918731;28;20040;-64
2022/10/29 06:45:09;;;;;;;10.70;3.55;;;;;;;;;;4919536;28;20115;-64
2022/10/29 06:47:42;;;;;;;8.90;3.22;;;;;;;;;;4919182;28;20047;-63
2022/10/29 06:50:09;;;;;;;13.60;3.38;;;;;;;;;;4919594;28;20143;-64
2022/10/29 06:52:35;;;;;;;9.45;3.90;;;;;;;;;;4918699;28;20047;-64
2022/10/29 06:55:02;;;;;;;9.07;3.50;;;;;;;;;;4919092;28;20090;-63
2022/10/29 06:57:29;;;;;;;8.02;3.10;;;;;;;;;;4918317;28;20036;-63
2022/10/29 06:59:56;;;;;;;9.57;3.53;;;;;;;;;;4919308;28;20446;-64
2022/10/29 07:02:23;;;;;;;11.40;3.42;;;;;;;;;;4919071;28;20039;-63
2022/10/29 07:04:50;;;;;;;7.90;3.35;;;;;;;;;;4918986;28;20070;-63
2022/10/29 07:07:17;;;;;;;9.60;3.63;;;;;;;;;;4918661;28;20035;-63
2022/10/29 07:09:43;;;;;;;8.93;3.08;;;;;;;;;;4919543;28;20086;-63
2022/10/29 07:12:10;;;;;;;7.20;3.25;;;;;;;;;;4919280;28;20044;-63
2022/10/29 07:14:37;;;;;;;10.27;3.33;;;;;;;;;;4918691;28;20461;-64
2022/10/29 07:17:03;;;;;;;10.90;3.17;;;;;;;;;;4920767;28;20389;-63
2022/10/29 07:19:30;;;;;;;9.80;3.13;;;;;;;;;;4921933;28;20055;-65
2022/10/29 07:21:56;;;;;;;11.18;3.50;;;;;;;;;;4922498;28;20039;-65
2022/10/29 07:24:23;;;;;;;8.10;2.90;;;;;;;;;;4921757;28;20047;-64
2022/10/29 07:26:50;;;;;;;7.60;2.90;;;;;;;;;;4922007;28;20074;-65
2022/10/29 07:29:16;;;;;;;7.20;3.08;;;;;;;;;;4922866;28;20048;-65
2022/10/29 07:31:43;;;;;;;6.22;2.97;;;;;;;;;;4929085;28;20040;-64
2022/10/29 07:34:09;;;;;;;6.72;3.10;;;;;;;;;;4922367;28;20114;-65
2022/10/29 07:36:36;;;;;;;11.88;3.13;;;;;;;;;;4921511;28;20040;-64
2022/10/29 07:39:03;;;;;;;7.05;2.88;;;;;;;;;;4922653;28;20036;-65
2022/10/29 07:41:30;;;;;;;12.52;3.35;;;;;;;;;;4921840;28;20351;-65
2022/10/29 07:43:57;;;;;;;5.72;2.55;;;;;;;;;;4922297;28;20765;-66
2022/10/29 07:46:24;;;;;;;10.35;3.33;;;;;;;;;;4920542;28;20040;-64
2022/10/29 07:48:50;;;;;;;7.05;2.60;;;;;;;;;;4921625;28;20047;-67
2022/10/29 07:51:17;;;;;;;10.98;2.75;;;;;;;;;;4922562;28;20051;-65
2022/10/29 07:53:43;;;;;;;7.10;2.65;;;;;;;;;;4921761;28;20197;-65
2022/10/29 07:56:10;;;;;;;6.65;2.60;;;;;;;;;;4921083;28;20103;-66
2022/10/29 07:58:37;;;;;;;6.45;2.60;;;;;;;;;;4920618;28;20058;-64
2022/10/29 08:01:03;;;;;;;6.55;2.58;;;;;;;;;;4922076;28;20063;-65
2022/10/29 08:03:30;;;;;;;6.90;2.42;;;;;;;;;;4919703;28;20043;-65
2022/10/29 08:05:57;;;;;;;4.53;1.98;;;;;;;;;;4920889;28;20047;-65
2022/10/29 08:08:24;;;;;;;5.35;2.30;;;;;;;;;;4912584;28;20044;-67
2022/10/29 08:10:51;;;;;;;5.85;2.35;;;;;;;;;;4936850;28;20607;-65
2022/10/29 08:13:17;;;;;;;4.53;2.30;;;;;;;;;;4921963;28;20091;-66
2022/10/29 08:15:47;;;;;;;8.20;2.40;;;;;;;;;;4920888;28;20066;-66
2022/10/29 08:18:34;;;;;;;5.93;2.58;;;;;;;;;;4927921;28;20962;-65
2022/10/29 08:21:03;;;;;;;11.02;1.88;;;;;;;;;;4928001;28;20515;-65
2022/10/29 08:23:30;;;;;;;12.65;2.70;;;;;;;;;;4917591;28;20031;-65
2022/10/29 08:25:59;;;;;;;10.70;2.60;;;;;;;;;;4926956;28;20040;-65
2022/10/29 08:28:26;;;;;;;6.80;2.50;;;;;;;;;;4911391;29;20039;-65
2022/10/29 08:30:52;;;;;;;6.90;2.40;;;;;;;;;;4928384;28;20070;-64
2022/10/29 08:33:19;;;;;;;5.63;2.13;;;;;;;;;;4927475;28;20199;-65
2022/10/29 08:35:46;;;;;;;7.35;2.58;;;;;;;;;;4927818;28;20186;-64
2022/10/29 08:38:12;;;;;;;5.35;2.22;;;;;;;;;;4928359;28;20220;-65
2022/10/29 08:40:42;;;;;;;6.60;2.42;;;;;;;;;;4928146;28;20043;-64
2022/10/29 08:43:26;;;;;;;6.90;2.60;;;;;;;;;;4926905;28;20106;-64
2022/10/29 08:45:54;;;;;;;11.93;2.70;;;;;;;;;;4910340;29;20246;-63
2022/10/29 08:48:26;;;;;;;9.48;2.78;;;;;;;;;;4928699;28;20043;-63
2022/10/29 08:50:57;;;;;;;5.65;2.53;;;;;;;;;;4914618;28;20526;-64
2022/10/29 08:53:27;;;;;;;6.20;2.50;;;;;;;;;;4928392;28;20092;-66
2022/10/29 08:55:54;;;;;;;7.88;2.80;;;;;;;;;;4923013;28;20059;-63
2022/10/29 08:58:28;;;;;;;8.10;2.70;;;;;;;;;;4921752;28;20070;-64
2022/10/29 09:00:56;;;;;;;7.20;2.78;;;;;;;;;;4920355;28;20070;-64
2022/10/29 09:03:24;;;;;;;5.25;2.25;;;;;;;;;;4920381;28;20039;-64
2022/10/29 09:05:51;;;;;;;6.22;2.33;;;;;;;;;;4920778;28;20051;-67
2022/10/29 09:08:18;;;;;;;13.35;2.70;;;;;;;;;;4911480;29;20044;-65
2022/10/29 09:10:47;;;;;;;6.03;2.35;;;;;;;;;;4919062;28;20623;-65
2022/10/29 09:13:20;;;;;;;6.00;2.05;;;;;;;;;;4920883;28;20047;-65
2022/10/29 09:15:54;;;;;;;6.47;2.40;;;;;;;;;;4919978;28;20051;-64
2022/10/29 09:18:28;;;;;;;9.27;2.45;;;;;;;;;;4920282;28;20079;-65
2022/10/29 09:21:29;;;;;;;5.63;1.80;;;;;;;;;;4921349;28;20441;-65
2022/10/29 09:24:07;;;;;;;6.90;2.30;;;;;;;;;;4916678;29;20047;-65
2022/10/29 09:26:42;;;;;;;7.85;2.20;;;;;;;;;;4919445;28;20051;-66
2022/10/29 09:29:27;;;;;;;4.63;2.22;;;;;;;;;;4919474;29;20055;-64
2022/10/29 09:31:59;;;;;;;4.30;2.20;;;;;;;;;;4919933;28;20131;-66
2022/10/29 09:34:34;;;;;;;5.15;2.38;;;;;;;;;;4918807;28;20781;-65
2022/10/29 09:37:01;;;;;;;9.48;2.67;;;;;;;;;;4920066;28;20042;-66
2022/10/29 09:39:37;;;;;;;12.00;2.40;;;;;;;;;;4919410;28;20040;-66
2022/10/29 09:42:09;;;;;;;5.00;2.00;;;;;;;;;;4918523;29;20035;-65
2022/10/29 09:44:40;;;;;;;5.03;1.83;;;;;;;;;;4919894;28;20130;-64
2022/10/29 09:47:15;;;;;;;9.23;2.20;;;;;;;;;;4919295;28;20047;-65
2022/10/29 09:49:51;;;;;;;7.88;1.95;;;;;;;;;;4933918;28;20111;-69
2022/10/29 09:52:39;;;;;;;5.72;1.92;;;;;;;;;;4926139;28;20052;-64
2022/10/29 09:55:07;;;;;;;6.88;2.00;;;;;;;;;;4925700;28;20078;-64
2022/10/29 09:57:35;;;;;;;6.28;1.70;;;;;;;;;;4927176;28;20049;-66
2022/10/29 10:00:04;;;;;;;4.85;2.10;;;;;;;;;;4926796;28;20040;-65
2022/10/29 10:02:38;;;;;;;5.93;2.03;;;;;;;;;;4926550;28;20079;-65
2022/10/29 10:05:14;;;;;;;6.00;1.90;;;;;;;;;;4924234;28;20126;-65
2022/10/29 10:07:41;;;;;;;10.32;2.55;;;;;;;;;;4925917;28;20055;-65
2022/10/29 10:10:19;;;;;;;4.95;1.90;;;;;;;;;;4927458;28;20054;-65
2022/10/29 10:12:47;;;;;;;8.98;2.33;;;;;;;;;;4923854;28;20040;-65
2022/10/29 10:15:16;;;;;;;5.70;2.15;;;;;;;;;;4926067;28;20684;-65
2022/10/29 10:18:01;;;;;;;6.47;2.55;;;;;;;;;;4926554;29;20078;-65
2022/10/29 10:20:39;;;;;;;5.85;2.10;;;;;;;;;;4925894;28;20043;-65
2022/10/29 10:23:23;;;;;;;5.88;2.20;;;;;;;;;;4924818;28;20507;-65
2022/10/29 10:25:50;;;;;;;5.18;2.17;;;;;;;;;;4918739;28;20102;-64
2022/10/29 10:28:22;;;;;;;8.32;2.38;;;;;;;;;;4919421;28;20039;-65
2022/10/29 10:31:03;;;;;;;5.47;2.38;;;;;;;;;;4919301;28;20110;-64
2022/10/29 10:33:31;;;;;;;7.68;2.35;;;;;;;;;;4918947;28;20043;-65
2022/10/29 10:36:02;;;;;;;6.30;2.33;;;;;;;;;;4919181;28;20229;-64
2022/10/29 10:38:29;;;;;;;6.70;2.58;;;;;;;;;;4918653;28;20256;-65
2022/10/29 10:40:56;;;;;;;5.93;2.35;;;;;;;;;;4917411;29;21248;-64
2022/10/29 10:43:24;;;;;;;10.40;3.08;;;;;;;;;;4919090;28;20051;-64
2022/10/29 10:45:56;;;;;;;6.53;2.33;;;;;;;;;;4919135;28;20046;-64
2022/10/29 10:48:25;;;;;;;11.07;3.15;;;;;;;;;;4918622;28;20048;-63
2022/10/29 10:50:52;;;;;;;9.35;2.40;;;;;;;;;;4919415;28;20035;-63
2022/10/29 10:53:22;;;;;;;4.68;2.20;;;;;;;;;;4916302;28;20116;-64
2022/10/29 10:55:56;;;;;;;8.90;2.80;;;;;;;;;;4918569;28;20142;-65
2022/10/29 10:58:30;;;;;;;7.78;2.40;;;;;;;;;;4918161;28;20187;-64
2022/10/29 11:01:06;;;;;;;6.22;2.58;;;;;;;;;;4920067;28;20039;-65
2022/10/29 11:03:37;;;;;;;8.32;3.15;;;;;;;;;;4918258;28;20094;-65
2022/10/29 11:06:03;;;;;;;10.85;2.90;;;;;;;;;;4918412;28;20110;-65
2022/10/29 11:08:45;;;;;;;6.93;3.00;;;;;;;;;;4919469;28;20044;-65
2022/10/29 11:11:18;;;;;;;7.68;3.15;;;;;;;;;;4910277;29;20039;-65
2022/10/29 11:13:44;;;;;;;8.63;3.05;;;;;;;;;;4918947;28;20087;-65
2022/10/29 11:16:30;;;;;;;7.32;2.95;;;;;;;;;;4918398;28;20130;-65
2022/10/29 11:18:57;;;;;;;7.05;2.75;;;;;;;;;;4918851;28;20039;-63
2022/10/29 11:21:30;;;;;;;7.10;2.80;;;;;;;;;;4918184;28;20568;-64
2022/10/29 11:24:02;;;;;;;8.18;3.03;;;;;;;;;;4919096;28;20074;-64
2022/10/29 11:26:41;;;;;;;6.72;2.78;;;;;;;;;;4918119;28;20086;-64
2022/10/29 11:29:23;;;;;;;7.05;2.75;;;;;;;;;;4920207;28;20055;-63
2022/10/29 11:31:53;;;;;;;6.40;2.47;;;;;;;;;;4918208;28;20051;-64
2022/10/29 11:34:25;;;;;;;6.22;2.55;;;;;;;;;;4918540;28;20040;-65
2022/10/29 11:36:57;;;;;;;10.07;2.70;;;;;;;;;;4917842;28;20048;-64
2022/10/29 11:39:38;;;;;;;7.43;2.80;;;;;;;;;;4918330;28;20044;-64
2022/10/29 11:42:08;;;;;;;7.28;2.42;;;;;;;;;;4918605;28;21621;-64
2022/10/29 11:44:38;;;;;;;7.50;2.85;;;;;;;;;;4918889;28;20524;-64
2022/10/29 11:47:07;;;;;;;8.27;2.63;;;;;;;;;;4918860;28;20039;-64
2022/10/29 11:49:36;;;;;;;10.32;3.00;;;;;;;;;;4917940;28;20509;-64
2022/10/29 11:52:14;;;;;;;10.35;2.80;;;;;;;;;;4918398;28;20085;-64
2022/10/29 11:54:44;;;;;;;5.15;2.22;;;;;;;;;;4917359;28;20062;-67
2022/10/29 11:57:15;;;;;;;10.15;2.50;;;;;;;;;;4919147;28;20044;-66
2022/10/29 12:00:00;;;;;;;5.28;2.20;;;;;;;;;;4919128;28;20040;-65
2022/10/29 12:02:36;;;;;;;8.05;2.15;;;;;;;;;;4916940;28;20036;-65
2022/10/29 12:05:12;;;;;;;6.10;1.88;;;;;;;;;;4921948;28;20052;-66
2022/10/29 12:07:58;;;;;;;5.10;2.08;;;;;;;;;;4921902;28;20040;-64
2022/10/29 12:10:27;;;;;;;4.03;1.83;;;;;;;;;;4920729;28;20071;-65
2022/10/29 12:13:17;;;;;;;6.30;2.40;;;;;;;;;;4922805;28;20039;-64
2022/10/29 12:15:44;;;;;;;6.47;2.22;;;;;;;;;;4922448;28;20057;-64
2022/10/29 12:18:29;;;;;;;4.93;2.33;;;;;;;;;;4922536;28;20032;-65
2022/10/29 12:20:56;;;;;;;7.38;1.85;;;;;;;;;;4921121;28;20044;-64
2022/10/29 12:23:27;;;;;;;5.53;1.67;;;;;;;;;;4922216;28;20046;-64
2022/10/29 12:25:57;;;;;;;7.00;2.28;;;;;;;;;;4923170;28;20048;-64
2022/10/29 12:28:38;;;;;;;5.40;1.60;;;;;;;;;;4922193;28;20409;-63
2022/10/29 12:31:34;;;;;;;6.20;2.00;;;;;;;;;;4922811;28;20512;-63
2022/10/29 12:34:00;;;;;;;4.43;2.00;;;;;;;;;;4916848;28;20134;-64
2022/10/29 12:36:27;;;;;;;11.48;2.42;;;;;;;;;;4921162;28;20123;-63
2022/10/29 12:38:57;;;;;;;5.65;2.13;;;;;;;;;;4921894;28;20688;-63
2022/10/29 12:41:25;;;;;;;4.38;1.83;;;;;;;;;;4910852;28;20338;-63
2022/10/29 12:43:53;;;;;;;9.82;1.77;;;;;;;;;;4922046;28;20138;-64
2022/10/29 12:46:24;;;;;;;5.57;2.05;;;;;;;;;;4921121;28;20082;-64
2022/10/29 12:48:53;;;;;;;4.30;1.90;;;;;;;;;;4921970;28;20051;-65
2022/10/29 12:51:38;;;;;;;6.82;2.13;;;;;;;;;;4920278;28;20552;-64
2022/10/29 12:54:08;;;;;;;6.47;2.17;;;;;;;;;;4921427;28;20051;-65
2022/10/29 12:56:34;;;;;;;5.05;2.20;;;;;;;;;;4921084;28;20075;-65
2022/10/29 12:59:19;;;;;;;5.25;1.90;;;;;;;;;;4921618;28;20102;-64
2022/10/29 13:01:46;;;;;;;5.03;1.90;;;;;;;;;;4920620;28;20146;-66
2022/10/29 13:04:29;;;;;;;4.88;2.20;;;;;;;;;;4922073;28;20910;-64
2022/10/29 13:07:02;;;;;;;4.65;2.10;;;;;;;;;;4921473;28;20054;-65
2022/10/29 13:09:30;;;;;;;6.17;1.93;;;;;;;;;;4921508;28;20044;-65
2022/10/29 13:12:20;;;;;;;9.13;2.10;;;;;;;;;;4921032;28;20464;-66
2022/10/29 13:14:52;;;;;;;6.28;1.70;;;;;;;;;;4918544;29;20409;-64
2022/10/29 13:17:24;;;;;;;5.60;2.00;;;;;;;;;;4921944;28;20043;-66
2022/10/29 13:19:53;;;;;;;3.67;1.65;;;;;;;;;;4920434;29;20071;-64
2022/10/29 13:22:29;;;;;;;12.25;2.20;;;;;;;;;;4919637;28;20074;-64
2022/10/29 13:25:14;;;;;;;5.25;2.13;;;;;;;;;;4920286;29;20048;-65
2022/10/29 13:27:41;;;;;;;6.10;2.30;;;;;;;;;;4918177;28;20055;-64
2022/10/29 13:30:26;;;;;;;5.00;2.33;;;;;;;;;;4920916;28;20039;-64
2022/10/29 13:32:53;;;;;;;7.68;2.20;;;;;;;;;;4920217;28;20749;-65
2022/10/29 13:35:20;;;;;;;7.70;2.03;;;;;;;;;;4920510;28;20056;-65
2022/10/29 13:37:47;;;;;;;7.10;2.10;;;;;;;;;;4917855;29;20043;-66
2022/10/29 13:40:23;;;;;;;4.20;1.77;;;;;;;;;;4920120;28;20102;-65
2022/10/29 13:42:55;;;;;;;8.10;2.22;;;;;;;;;;4919587;28;20040;-65
2022/10/29 13:45:22;;;;;;;15.27;2.53;;;;;;;;;;4919793;28;20956;-66
2022/10/29 13:47:49;;;;;;;7.80;2.60;;;;;;;;;;4920809;28;20069;-65
2022/10/29 13:50:19;;;;;;;4.95;2.28;;;;;;;;;;4919127;28;20098;-64
2022/10/29 13:52:50;;;;;;;5.75;2.55;;;;;;;;;;4919038;28;20409;-65
2022/10/29 13:55:17;;;;;;;9.30;2.47;;;;;;;;;;4920382;28;20079;-67
2022/10/29 13:57:43;;;;;;;8.00;2.03;;;;;;;;;;4910837;28;20039;-64
2022/10/29 14:00:10;;;;;;;8.55;2.63;;;;;;;;;;4919505;28;20463;-64
2022/10/29 14:02:38;;;;;;;10.75;2.42;;;;;;;;;;4919336;28;20043;-66
2022/10/29 14:05:24;;;;;;;5.82;2.17;;;;;;;;;;4920012;28;20064;-65
2022/10/29 14:08:00;;;;;;;7.35;2.58;;;;;;;;;;4912699;28;20425;-65
2022/10/29 14:10:58;;;;;;;6.57;2.67;;;;;;;;;;4919210;28;20086;-64
2022/10/29 14:13:42;;;;;;;5.28;2.25;;;;;;;;;;4918621;28;20036;-64
2022/10/29 14:16:10;;;;;;;9.88;2.67;;;;;;;;;;4919817;28;20058;-65
2022/10/29 14:18:40;;;;;;;7.55;2.70;;;;;;;;;;4916767;28;20047;-64
2022/10/29 14:21:12;;;;;;;8.48;2.65;;;;;;;;;;4918808;28;20132;-64
2022/10/29 14:23:41;;;;;;;6.82;2.65;;;;;;;;;;4919150;28;20135;-64
2022/10/29 14:26:17;;;;;;;7.18;2.88;;;;;;;;;;4919159;28;20718;-65
2022/10/29 14:28:43;;;;;;;10.27;2.78;;;;;;;;;;4919303;28;20082;-67
2022/10/29 14:31:10;;;;;;;9.88;2.65;;;;;;;;;;4919805;28;20130;-65
2022/10/29 14:33:38;;;;;;;8.68;2.67;;;;;;;;;;4918796;28;20136;-65
2022/10/29 14:36:04;;;;;;;6.75;2.72;;;;;;;;;;4919556;28;20044;-68
2022/10/29 14:38:42;;;;;;;7.85;2.60;;;;;;;;;;4917171;28;20667;-65
2022/10/29 14:41:10;;;;;;;9.05;2.70;;;;;;;;;;4933704;28;20496;-66
2022/10/29 14:43:37;;;;;;;7.07;2.53;;;;;;;;;;4918422;28;20044;-66
2022/10/29 14:46:12;;;;;;;5.80;2.63;;;;;;;;;;4910728;28;20072;-65
2022/10/29 14:48:39;;;;;;;7.13;2.80;;;;;;;;;;4909307;28;20050;-64
2022/10/29 14:51:05;;;;;;;6.85;2.95;;;;;;;;;;4916139;28;20980;-64
2022/10/29 14:53:34;;;;;;;7.70;3.20;;;;;;;;;;4910378;28;20479;-65
2022/10/29 14:56:05;;;;;;;9.20;3.00;;;;;;;;;;4919825;28;20048;-66
2022/10/29 14:58:33;;;;;;;9.40;2.97;;;;;;;;;;4918382;28;20043;-65